createdAt,value
2019-03-10T00:09:48.901Z,10980.1
2019-03-10T00:19:47.913Z,10980.2
2019-03-10T00:29:47.127Z,10980.2
2019-03-10T00:39:46.339Z,10980.3
2019-03-10T00:49:46.350Z,10980.3
2019-03-10T00:59:45.557Z,10980.4
2019-03-10T01:09:44.771Z,10980.4
2019-03-10T01:19:43.981Z,10980.5
2019-03-10T01:29:43.237Z,10980.5
2019-03-10T01:39:42.406Z,10980.6
2019-03-10T01:49:41.619Z,10980.6
2019-03-10T01:59:40.830Z,10980.7
2019-03-10T02:09:40.044Z,10980.7
2019-03-10T02:19:39.257Z,10980.8
2019-03-10T02:29:38.467Z,10980.8
2019-03-10T02:39:37.682Z,10980.9
2019-03-10T02:49:36.892Z,10980.9
2019-03-10T02:59:36.103Z,10981
2019-03-10T03:09:35.316Z,10981
2019-03-10T03:19:34.530Z,10981.1
2019-03-10T03:29:33.740Z,10981.2
2019-03-10T03:39:32.958Z,10981.2
2019-03-10T03:49:32.173Z,10981.3
2019-03-10T03:59:31.377Z,10981.3
2019-03-10T04:09:30.638Z,10981.3
2019-03-10T04:19:29.797Z,10981.4
2019-03-10T04:29:29.005Z,10981.4
2019-03-10T04:39:28.214Z,10981.5
2019-03-10T04:49:27.424Z,10981.5
2019-03-10T04:59:26.634Z,10981.6
2019-03-10T05:09:25.844Z,10981.6
2019-03-10T05:19:25.055Z,10981.7
2019-03-10T05:29:24.314Z,10981.7
2019-03-10T05:39:23.481Z,10981.8
2019-03-10T05:49:22.683Z,10981.8
2019-03-10T05:59:21.893Z,10981.9
2019-03-10T06:09:21.102Z,10981.9
2019-03-10T06:19:20.314Z,10982
2019-03-10T06:29:19.524Z,10982
2019-03-10T06:39:18.798Z,10982.1
2019-03-10T06:49:17.947Z,10982.1
2019-03-10T06:59:17.164Z,10982.2
2019-03-10T07:09:16.374Z,10982.2
2019-03-10T07:19:15.586Z,10982.2
2019-03-10T07:29:14.796Z,10982.3
2019-03-10T07:39:14.025Z,10982.3
2019-03-10T07:49:13.239Z,10982.3
2019-03-10T07:59:12.433Z,10982.4
2019-03-10T08:09:11.646Z,10982.4
2019-03-10T08:19:10.864Z,10982.4
2019-03-10T08:29:10.074Z,10982.5
2019-03-10T08:39:09.291Z,10982.5
2019-03-10T08:49:08.510Z,10982.6
2019-03-10T08:59:07.717Z,10982.6
2019-03-10T09:09:06.936Z,10982.6
2019-03-10T09:19:06.145Z,10982.7
2019-03-10T09:29:05.356Z,10982.7
2019-03-10T09:39:04.571Z,10982.7
2019-03-10T09:49:03.784Z,10982.8
2019-03-10T09:59:03.039Z,10982.8
2019-03-10T10:09:02.220Z,10982.8
2019-03-10T10:19:01.425Z,10982.8
2019-03-10T10:29:00.640Z,10982.9
2019-03-10T10:38:59.855Z,10982.9
2019-03-10T10:48:59.071Z,10982.9
2019-03-10T10:58:58.282Z,10982.9
2019-03-10T11:08:57.494Z,10982.9
2019-03-10T11:18:56.708Z,10983
2019-03-10T11:28:55.921Z,10983
2019-03-10T11:38:55.139Z,10983
2019-03-10T11:48:54.350Z,10983.1
2019-03-10T11:58:53.564Z,10983.1
2019-03-10T12:08:52.777Z,10983.1
2019-03-10T12:18:51.992Z,10983.1
2019-03-10T12:28:51.204Z,10983.2
2019-03-10T12:41:42.298Z,10983.2
2019-03-10T12:51:41.510Z,10983.2
2019-03-10T13:01:40.720Z,10983.2
2019-03-10T13:11:39.933Z,10983.2
2019-03-10T13:21:39.205Z,10983.3
2019-03-10T13:31:38.356Z,10983.3
2019-03-10T13:41:37.598Z,10983.3
2019-03-10T13:51:36.886Z,10983.4
2019-03-10T14:01:36.177Z,10983.4
2019-03-10T14:11:35.467Z,10983.4
2019-03-10T14:21:34.831Z,10983.4
2019-03-10T14:31:34.046Z,10983.5
2019-03-10T14:41:33.260Z,10983.5
2019-03-10T14:51:32.473Z,10983.5
2019-03-10T15:01:31.691Z,10983.5
2019-03-10T15:11:30.903Z,10983.6
2019-03-10T15:21:30.114Z,10983.6
2019-03-10T15:31:29.377Z,10983.6
2019-03-10T15:41:28.542Z,10983.7
2019-03-10T15:51:27.756Z,10983.7
2019-03-10T16:01:26.972Z,10983.7
2019-03-10T16:11:26.188Z,10983.8
2019-03-10T16:21:25.399Z,10983.8
2019-03-10T16:31:24.614Z,10983.8
2019-03-10T16:41:23.827Z,10983.9
2019-03-10T16:51:23.989Z,10983.9
2019-03-10T17:01:23.204Z,10984
2019-03-10T17:11:22.419Z,10984
2019-03-10T17:21:21.633Z,10984.1
2019-03-10T17:31:20.853Z,10984.1
2019-03-10T17:41:20.061Z,10984.1
2019-03-10T17:51:19.275Z,10984.2
2019-03-10T18:01:18.491Z,10984.2
2019-03-10T18:11:17.711Z,10984.2
2019-03-10T18:21:16.928Z,10984.3
2019-03-10T18:31:16.147Z,10984.3
2019-03-10T18:41:15.370Z,10984.3
2019-03-10T18:51:14.599Z,10984.4
2019-03-10T19:01:13.821Z,10984.4
2019-03-10T19:11:13.041Z,10984.4
2019-03-10T19:21:12.265Z,10984.5
2019-03-10T19:31:11.487Z,10984.5
2019-03-10T19:41:10.709Z,10984.5
2019-03-10T19:51:09.930Z,10984.6
2019-03-10T20:01:09.154Z,10984.6
2019-03-10T20:11:08.365Z,10984.6
2019-03-10T20:21:07.592Z,10984.7
2019-03-10T20:31:06.801Z,10984.7
2019-03-10T20:41:06.018Z,10984.8
2019-03-10T20:51:05.500Z,10984.8
2019-03-10T21:01:04.458Z,10984.8
2019-03-10T21:12:40.723Z,10984.7
2019-03-10T21:22:38.077Z,10984.8
2019-03-10T21:32:37.293Z,10984.8
2019-03-10T21:42:36.517Z,10984.9
2019-03-10T21:52:35.737Z,10984.9
2019-03-10T22:02:34.945Z,10984.9
2019-03-10T22:12:34.221Z,10985
2019-03-10T22:22:35.810Z,10985
2019-03-10T22:32:32.797Z,10985
2019-03-10T22:42:32.090Z,10985.1
2019-03-10T22:52:31.380Z,10985.1
2019-03-10T23:02:30.679Z,10985.2
2019-03-10T23:12:29.886Z,10985.2
2019-03-10T23:22:29.104Z,10985.3
2019-03-10T23:32:28.325Z,10985.3
2019-03-10T23:42:27.533Z,10985.4
2019-03-10T23:52:26.746Z,10985.4
